• Join FlightAware (Why Join?)
  • Login
  • US Flag 
 
06:01PM EST


 

Airport Tracker/Info


-or-


 

Live Flight TrackerFlight Track Log ✈ N566UA ✈ 15-Apr-2013 ✈ KLAS - KEWR

Flight Track Log - Related Links

Times and Time Zones

All times are in EDT time to prevent confusion due to time zone crossing. See the N566UA flight status page for this flight to view local times or setup timezone preferences in your user account.

Time Position Orientation Groundspeed Altitude Reporting Facility
EDT Latitude Longitude Course Direction KTS MPH feet Rate Location/Type
03:08PM 36.0761 -115.1683 94° East 145 167 3,200  Level Los Angeles Center
03:09PM 36.0742 -115.2592 269° West 227 261 5,700 2,160 Climbing Los Angeles Center
03:10PM 36.0942 -115.2889 310° West 243 280 7,100 2,280 Climbing Los Angeles Center
03:11PM 36.1834 -115.0238 90° East  Level FlightAware Approximate
03:11PM 36.1622 -115.2775 North 273 314 9,400  Level Los Angeles Center
03:12PM 36.1876 -114.8533 80° East  Level FlightAware Approximate
03:12PM 36.1958 -115.1828 66° East 301 346 10,600  Level Los Angeles Center
03:13PM 36.1952 -114.6839 94° East  Level FlightAware Approximate
03:13PM 36.1983 -115.0561 89° East 360 414 12,500  Level Los Angeles Center
03:14PM 36.1992 -114.8919 90° East 392 451 14,600 1,740 Climbing Los Angeles Center
03:15PM 36.2000 -114.7403 90° East 427 491 16,100 1,500 Climbing Los Angeles Center
03:16PM 36.1978 -114.5794 91° East 455 524 17,800 1,800 Climbing Los Angeles Center
03:17PM 36.1950 -114.4128 91° East 477 549 19,900 1,800 Climbing Los Angeles Center
03:18PM 36.1942 -114.2400 90° East 494 568 21,600 1,500 Climbing Los Angeles Center
03:19PM 36.2125 -114.0639 83° East 511 588 23,000 1,500 Climbing Los Angeles Center
03:20PM 36.2403 -113.8472 81° East 528 608 24,800 1,440 Climbing Los Angeles Center
03:21PM 36.2617 -113.6619 82° East 539 620 26,000 1,200 Climbing Los Angeles Center
03:22PM 36.2831 -113.4731 82° East 551 634 27,400 1,380 Climbing Los Angeles Center
03:23PM 36.3056 -113.2831 82° East 558 642 28,900 1,200 Climbing Los Angeles Center
03:24PM 36.3561 -113.0992 71° East 550 633 30,000 960 Climbing Los Angeles Center
03:25PM 36.4225 -112.9256 65° Northeast 558 642 30,900 960 Climbing Los Angeles Center
03:26PM 36.4864 -112.7494 66° East 562 647 32,100 1,320 Climbing Los Angeles Center
03:27PM 36.5633 -112.5422 65° Northeast 554 638 33,700 1,200 Climbing Los Angeles Center
03:28PM 36.6250 -112.3700 66° East 550 633 34,600 600 Climbing Los Angeles Center
03:29PM 36.6881 -112.1975 65° Northeast 550 633 35,000 180 Climbing Los Angeles Center
03:30PM 36.7514 -112.0250 65° Northeast 550 633 35,000  Level Los Angeles Center
03:31PM 36.7881 -111.9236 66° East 550 633 35,000  Level Denver Center
03:32PM 36.8481 -111.7544 66° East 541 623 35,000  Level Denver Center
03:33PM 36.9108 -111.5800 66° East 548 631 35,000  Level Denver Center
03:34PM 36.9728 -111.4036 66° East 554 638 35,000  Level Denver Center
03:35PM 37.0342 -111.2275 66° East 556 640 35,000  Level Denver Center
03:36PM 37.0961 -111.0492 66° East 560 644 35,000  Level Denver Center
03:37PM 37.1444 -110.9075 67° East 558 642 35,000  Level Denver Center
03:38PM 37.2325 -110.6572 66° East 563 648 35,000  Level Denver Center
03:39PM 37.2947 -110.4792 66° East 560 644 35,000  Level Denver Center
03:40PM 37.3558 -110.2986 67° East 562 647 35,000  Level Denver Center
03:41PM 37.4150 -110.1225 67° East 560 644 35,000  Level Denver Center
03:43PM 37.5419 -109.7428 67° East 565 650 35,000  Level Denver Center
03:44PM 37.6103 -109.5386 67° East 564 649 35,000  Level Denver Center
03:45PM 37.6681 -109.3642 67° East 565 650 35,000  Level Denver Center
03:46PM 37.7256 -109.1883 67° East 565 650 35,000  Level Denver Center
03:47PM 37.7931 -108.9825 67° East 567 652 35,000  Level Denver Center
03:48PM 37.8553 -108.8086 66° East 567 652 35,000  Level Denver Center
03:49PM 37.9303 -108.6081 65° Northeast 564 649 35,000  Level Denver Center
03:50PM 37.9842 -108.4619 65° Northeast 567 652 35,000  Level Denver Center
03:51PM 38.0608 -108.2597 64° Northeast 571 657 35,000  Level Denver Center
03:52PM 38.1361 -108.0508 65° Northeast 577 664 35,000  Level Denver Center
03:53PM 38.2008 -107.8758 65° Northeast 575 662 35,000  Level Denver Center
03:54PM 38.2753 -107.6725 65° Northeast 572 658 35,000  Level Denver Center
03:55PM 38.3394 -107.4939 65° Northeast 577 664 35,000  Level Denver Center
03:57PM 38.4142 -107.2853 65° Northeast 579 666 35,000  Level Denver Center
03:58PM 38.4750 -107.1139 66° East 578 665 35,000  Level Denver Center
03:59PM 38.5408 -106.9275 66° East 577 664 35,000  Level Denver Center
04:00PM 38.6072 -106.7386 66° East 583 671 35,000  Level Denver Center
04:01PM 38.6864 -106.5142 66° East 581 669 35,000  Level Denver Center
04:02PM 38.7525 -106.3247 66° East 585 673 35,000  Level Denver Center
04:03PM 38.8228 -106.1206 66° East 585 673 35,000  Level Denver Center
04:04PM 38.8883 -105.9275 66° East 585 673 35,000  Level Denver Center
04:05PM 38.9425 -105.7678 66° East 583 671 35,000  Level Denver Center
04:06PM 39.0189 -105.5431 66° East 582 670 35,000  Level Denver Center
04:07PM 39.0833 -105.3506 67° East 583 671 35,000  Level Denver Center
04:08PM 39.1478 -105.1558 67° East 588 677 35,000  Level Denver Center
04:09PM 39.2139 -104.9617 66° East 590 679 35,000  Level Denver Center
04:10PM 39.2986 -104.7039 67° East 584 672 35,000  Level Denver Center
04:11PM 39.3614 -104.5108 67° East 586 674 35,000  Level Denver Center
04:12PM 39.4242 -104.3181 67° East 584 672 35,000  Level Denver Center
04:13PM 39.4864 -104.1219 68° East 588 677 35,000  Level Denver Center
04:14PM 39.5475 -103.9278 68° East 585 673 35,000  Level Denver Center
04:15PM 39.6097 -103.7331 67° East 583 671 35,000  Level Denver Center
04:16PM 39.6717 -103.5392 67° East 577 664 35,000  Level Denver Center
04:17PM 39.7431 -103.3119 68° East 578 665 35,000  Level Denver Center
04:18PM 39.8039 -103.1183 68° East 574 661 35,000  Level Denver Center
04:19PM 39.8625 -102.9278 68° East 563 648 35,000  Level Denver Center
04:20PM 39.9200 -102.7364 69° East 562 647 35,000  Level Denver Center
04:21PM 39.9769 -102.5525 68° East 563 648 35,000  Level Denver Center
04:22PM 40.0406 -102.3425 68° East 559 643 35,000  Level Denver Center
04:23PM 40.0933 -102.1625 69° East 555 639 35,000  Level Denver Center
04:24PM 40.1556 -101.9531 69° East 554 638 35,000  Level Denver Center
04:26PM 40.2097 -101.7742 68° East 555 639 35,000  Level Denver Center
04:27PM 40.2622 -101.5928 69° East 557 641 35,000  Level Denver Center
04:28PM 40.3231 -101.3814 69° East 556 640 35,000  Level Denver Center
04:29PM 40.3753 -101.1994 69° East 559 643 35,000  Level Denver Center
04:30PM 40.4375 -100.9858 69° East 564 649 35,000  Level Denver Center
04:31PM 40.4758 -100.7972 75° East 565 650 35,000  Level Denver Center
04:32PM 40.5119 -100.5736 78° East 568 654 35,000  Level Denver Center
04:33PM 40.5447 -100.3814 77° East 570 656 35,000  Level Denver Center
04:34PM 40.5811 -100.1547 78° East 571 657 35,000  Level Denver Center
04:35PM 40.6122 -99.9600 78° East 571 657 35,000  Level Denver Center
04:36PM 40.6442 -99.7639 78° East 571 657 35,000  Level Denver Center
04:37PM 40.6825 -99.5200 78° East 572 658 35,000  Level Denver Center
04:38PM 40.7081 -99.3583 78° East 569 655 35,000  Level Denver Center
04:39PM 40.7467 -99.1006 79° East 565 650 35,000  Level Minneapolis Center
04:40PM 40.7775 -98.8983 79° East 565 650 35,000  Level Minneapolis Center
04:41PM 40.8061 -98.6947 79° East 564 649 35,000  Level Minneapolis Center
04:42PM 40.8364 -98.4922 79° East 565 650 35,000  Level Minneapolis Center
04:43PM 40.8683 -98.2725 79° East 564 649 35,000  Level Minneapolis Center
04:44PM 40.8975 -98.0697 79° East 565 650 35,000  Level Minneapolis Center
04:45PM 40.9267 -97.8664 79° East 566 651 35,000  Level Minneapolis Center
04:46PM 40.9608 -97.6239 79° East 562 647 35,000  Level Minneapolis Center
04:47PM 40.9942 -97.3792 80° East 563 648 35,000  Level Minneapolis Center
04:48PM 41.0197 -97.1894 80° East 564 649 35,000  Level Minneapolis Center
04:49PM 41.0467 -96.9850 80° East 565 650 35,000  Level Minneapolis Center
04:51PM 41.0733 -96.7808 80° East 565 650 35,000  Level Minneapolis Center
04:52PM 41.1047 -96.5350 80° East 565 650 35,000  Level Minneapolis Center
04:53PM 41.1322 -96.3211 80° East 566 651 35,000  Level Minneapolis Center
04:54PM 41.1550 -96.1067 82° East 564 649 35,000  Level Minneapolis Center
04:55PM 41.1847 -95.9011 79° East 567 652 35,000  Level Minneapolis Center
04:56PM 41.2089 -95.6956 81° East 564 649 35,000  Level Minneapolis Center
04:57PM 41.2336 -95.4856 81° East 555 639 35,000  Level Minneapolis Center
04:58PM 41.2581 -95.2839 81° East 555 639 35,000  Level Minneapolis Center
04:59PM 41.2811 -95.0819 81° East 555 639 35,000  Level Minneapolis Center
05:00PM 41.3033 -94.8789 82° East 555 639 35,000  Level Minneapolis Center
05:01PM 41.3264 -94.6761 81° East 556 640 35,000  Level Minneapolis Center
05:02PM 41.3522 -94.4328 82° East 556 640 35,000  Level Minneapolis Center
05:03PM 41.3758 -94.2294 81° East 556 640 35,000  Level Minneapolis Center
05:04PM 41.3933 -94.0544 82° East 555 639 35,000  Level Minneapolis Center
05:05PM 41.4200 -93.8144 81° East 552 635 35,000  Level Minneapolis Center
05:06PM 41.4394 -93.6131 83° East 550 633 35,000  Level Minneapolis Center
05:07PM 41.4603 -93.4100 82° East 554 638 35,000  Level Minneapolis Center
05:08PM 41.4783 -93.2072 83° East 554 638 35,000  Level Minneapolis Center
05:09PM 41.4983 -93.0078 82° East 549 632 35,000  Level Minneapolis Center
05:10PM 41.5169 -92.8061 83° East 549 632 35,000  Level Minneapolis Center
05:11PM 41.5422 -92.5244 83° East 549 632 35,000  Level Chicago Center
05:12PM 41.5594 -92.3242 83° East 549 632 35,000  Level Chicago Center
05:13PM 41.5769 -92.1233 83° East 549 632 35,000  Level Chicago Center
05:15PM 41.5975 -91.8847 83° East 548 631 35,000  Level Chicago Center
05:16PM 41.6136 -91.6858 84° East 546 628 35,000  Level Chicago Center
05:17PM 41.6286 -91.4883 84° East 544 626 35,000  Level Chicago Center
05:18PM 41.6444 -91.2897 84° East 544 626 35,000  Level Chicago Center
05:19PM 41.6631 -91.0522 84° East 543 625 35,000  Level Chicago Center
05:20PM 41.6778 -90.8525 84° East 545 627 35,000  Level Chicago Center
05:21PM 41.6919 -90.6558 84° East 542 624 35,000 420 Level Chicago Center
05:22PM 41.7067 -90.4444 85° East 542 624 35,900 780 Climbing Chicago Center
05:23PM 41.7219 -90.2419 84° East 544 626 36,700 480 Climbing Chicago Center
05:24PM 41.7347 -90.0422 85° East 543 625 37,000 120 Climbing Chicago Center
05:25PM 41.7483 -89.8367 85° East 552 635 37,000  Level Chicago Center
05:26PM 41.7611 -89.6286 85° East 558 642 37,000  Level Chicago Center
05:27PM 41.7781 -89.3725 85° East 561 646 37,000  Level Chicago Center
05:28PM 41.7897 -89.1647 86° East 562 647 37,000  Level Chicago Center
05:29PM 41.7994 -88.9608 86° East 554 638 37,000  Level Chicago Center
05:30PM 41.8114 -88.7547 85° East 556 640 37,000  Level Chicago Center
05:31PM 41.8222 -88.5486 86° East 554 638 37,000  Level Chicago Center
05:32PM 41.8336 -88.3444 86° East 552 635 37,000  Level Chicago Center
05:33PM 41.8458 -88.0947 86° East 556 640 37,000  Level Chicago Center
05:34PM 41.8561 -87.8881 86° East 553 636 37,000  Level Chicago Center
05:35PM 41.8658 -87.6839 86° East 549 632 37,000  Level Chicago Center
05:36PM 41.8747 -87.4811 87° East 545 627 37,000  Level Chicago Center
05:37PM 41.8831 -87.2772 87° East 546 628 37,000  Level Chicago Center
05:38PM 41.8906 -87.0747 87° East 544 626 37,000  Level Chicago Center
05:39PM 41.9000 -86.8722 86° East 544 626 37,000  Level Chicago Center
05:40PM 41.9067 -86.6519 88° East 548 631 37,000  Level Chicago Center
05:41PM 41.9147 -86.4503 87° East 543 625 37,000  Level Chicago Center
05:42PM 41.9219 -86.2467 87° East 544 626 37,000  Level Chicago Center
05:43PM 41.9300 -86.0044 87° East 542 624 37,000  Level Chicago Center
05:45PM 41.9361 -85.8003 88° East 543 625 37,000  Level Chicago Center
05:46PM 41.9422 -85.5953 88° East 544 626 37,000  Level Chicago Center
05:47PM 41.9478 -85.3889 88° East 546 628 37,000  Level Chicago Center
05:47PM 41.9544 -85.2550 86° East 533 613 37,000  Level Cleveland Center
05:48PM 41.9542 -85.0539 90° East 538 619 37,000  Level Cleveland Center
05:49PM 41.9514 -84.8525 91° East 538 619 37,000  Level Cleveland Center
05:50PM 41.9503 -84.6542 90° East 538 619 37,000  Level Cleveland Center
05:51PM 41.9489 -84.4558 90° East 538 619 37,000  Level Cleveland Center
05:52PM 41.9475 -84.3022 91° East 532 612 37,000  Level Cleveland Center
05:53PM 41.9419 -84.0839 92° East 532 612 37,000  Level Cleveland Center
05:54PM 41.9372 -83.8911 92° East 527 606 37,000  Level Cleveland Center
05:55PM 41.9364 -83.6956 90° East 521 600 37,000  Level Cleveland Center
05:56PM 41.9339 -83.4806 91° East 521 600 37,000  Level Cleveland Center
05:57PM 41.9344 -83.2853 90° East 516 594 37,000  Level Cleveland Center
05:58PM 41.9306 -83.0867 91° East 522 601 37,000  Level Cleveland Center
05:59PM 41.9303 -82.8969 90° East 522 601 37,000  Level Cleveland Center
06:00PM 41.9278 -82.7014 91° East 517 595 37,000  Level Cleveland Center
06:01PM 41.9250 -82.5033 91° East 517 595 37,000  Level Cleveland Center
06:02PM 41.9242 -82.3078 90° East 517 595 37,000  Level Cleveland Center
06:03PM 41.9242 -82.1544 90° East 517 595 37,000  Level Cleveland Center
06:04PM 41.9186 -81.9281 92° East 517 595 37,000  Level Cleveland Center
06:05PM 41.9083 -81.7328 94° East 517 595 37,000  Level Cleveland Center
06:06PM 41.8914 -81.5456 97° East 517 595 37,000  Level Cleveland Center
06:07PM 41.8761 -81.3528 96° East 522 601 37,000  Level Cleveland Center
06:08PM 41.8564 -81.1631 98° East 522 601 37,000  Level Cleveland Center
06:09PM 41.8406 -80.9706 96° East 522 601 37,000  Level Cleveland Center
06:10PM 41.8222 -80.8006 98° East 522 601 37,000  Level Cleveland Center
06:11PM 41.8036 -80.6111 97° East 516 594 37,000  Level Cleveland Center
06:12PM 41.7847 -80.4217 98° East 521 600 37,000  Level Cleveland Center
06:13PM 41.7656 -80.2325 98° East 521 600 37,000  Level Cleveland Center
06:14PM 41.7461 -80.0433 98° East 516 594 37,000  Level Cleveland Center
06:15PM 41.7242 -79.8375 98° East 516 594 37,000  Level Cleveland Center
06:16PM 41.7061 -79.6458 97° East 516 594 37,000  Level Cleveland Center
06:17PM 41.6858 -79.4794 99° East 505 581 37,000  Level Cleveland Center
06:18PM 41.6672 -79.2906 97° East 505 581 37,000  Level Cleveland Center
06:19PM 41.6461 -79.1022 98° East 505 581 37,000  Level Cleveland Center
06:20PM 41.6228 -78.9136 99° East 505 581 37,000  Level Cleveland Center
06:21PM 41.6031 -78.7256 98° East 505 581 37,000  Level Cleveland Center
06:22PM 41.5811 -78.5372 99° East 505 581 37,000  Level Cleveland Center
06:23PM 41.5589 -78.3464 99° East 505 581 37,000 -240 Level Cleveland Center
06:24PM 41.5342 -78.1586 100° East 510 587 36,600 -720 Descending Cleveland Center
06:25PM 41.5214 -78.0475 99° East 502 578 35,900 -1,320 Descending New York Center
06:26PM 41.4950 -77.8617 101° East 508 585 34,600 -1,560 Descending New York Center
06:27PM 41.4708 -77.6736 100° East 513 590 32,900 -1,680 Descending New York Center
06:28PM 41.4444 -77.4797 100° East 519 597 31,300 -960 Descending New York Center
06:29PM 41.4147 -77.2997 102° East 513 590 31,000 -360 Descending New York Center
06:30PM 41.3853 -77.1117 102° East 513 590 30,600 -1,440 Descending New York Center
06:31PM 41.3597 -76.9294 101° East 513 590 28,200 -2,340 Descending New York Center
06:32PM 41.3292 -76.7497 103° East 513 590 26,000 -2,160 Descending New York Center
06:33PM 41.2853 -76.5831 109° East 493 567 23,900 -2,100 Descending New York Center
06:34PM 41.2411 -76.4247 110° East 475 547 21,900 -1,980 Descending New York Center
06:35PM 41.2003 -76.2722 110° East 455 524 20,100 -1,800 Descending New York Center
06:36PM 41.1611 -76.1231 109° East 428 493 18,400 -1,560 Descending New York Center
06:37PM 41.1292 -75.9992 109° East 408 470 17,000 -1,500 Descending New York Center
06:38PM 41.0917 -75.8586 109° East 402 463 15,400 -1,740 Descending New York Center
06:39PM 41.0517 -75.7181 111° Southeast 383 441 13,500 -1,320 Descending New York Center
06:40PM 41.0153 -75.5917 111° Southeast 371 427 12,900 -660 Descending New York Center
06:41PM 40.9828 -75.4711 110° East 359 413 12,300 -960 Descending New York Center
06:42PM 40.9497 -75.3564 111° Southeast 338 389 11,000 -1,140 Descending New York Center
06:43PM 40.9225 -75.2528 109° East 317 365 10,100 -960 Descending New York Center
06:44PM 40.8928 -75.1547 112° Southeast 295 339 9,100 -1,200 Descending New York Center
06:45PM 40.8686 -75.0708 111° Southeast 283 326 7,800 -1,080 Descending New York Center
06:46PM 40.8428 -74.9789 110° East 276 318 7,000 -900 Descending New York Center
06:47PM 40.7894 -74.8961 130° Southeast 271 312 6,000 -540 Descending New York Center
06:48PM 40.7419 -74.8247 131° Southeast 266 306 6,000  Level New York Center
06:49PM 40.7200 -74.7358 108° East 250 288 6,000  Level New York Center
06:50PM 40.7064 -74.6447 101° East 250 288 6,000  Level New York Center
06:50PM 40.7333 -74.6000 52° Northeast 278 320 6,000  Level New York TRACON
06:51PM 40.8167 -74.5833 North 263 303 6,000 -540 Level New York TRACON
06:52PM 40.8833 -74.5500 21° North 263 303 5,000 -780 Descending New York TRACON
06:53PM 40.8892 -74.5314 67° East 247 284 5,000  Level New York Center
06:54PM 40.9369 -74.4764 41° Northeast 252 290 5,000  Level New York Center
06:55PM 40.9589 -74.3733 74° East 254 292 5,000  Level New York Center
06:56PM 40.9500 -74.3000 99° East 264 304 5,000 -420 Level New York TRACON
06:57PM 40.9167 -74.2167 118° Southeast 255 293 4,300 -540 Descending New York TRACON
06:58PM 40.8833 -74.1500 123° Southeast 212 244 4,000 -480 Descending New York TRACON
06:59PM 40.8667 -74.0833 108° East 182 209 3,400 -600 Descending New York TRACON
06:59PM 40.8167 -74.0833 180° South 170 196 2,900 -600 Descending New York TRACON